createdAt,value
2023-04-13T00:00:50.476Z,65.81
2023-04-13T00:01:50.585Z,65.81
2023-04-13T00:02:50.582Z,65.81
2023-04-13T00:03:50.567Z,65.81
2023-04-13T00:04:50.434Z,65.81
2023-04-13T00:05:50.584Z,65.81
2023-04-13T00:06:50.432Z,65.81
2023-04-13T00:07:50.404Z,65.81
2023-04-13T00:08:50.421Z,65.81
2023-04-13T00:09:50.414Z,65.81
2023-04-13T00:10:50.376Z,65.81
2023-04-13T00:11:50.355Z,65.81
2023-04-13T00:12:50.352Z,65.81
2023-04-13T00:13:50.334Z,65.81
2023-04-13T00:14:50.347Z,65.81
2023-04-13T00:15:50.327Z,65.81
2023-04-13T00:16:50.341Z,65.81
2023-04-13T00:17:50.315Z,65.81
2023-04-13T00:18:50.287Z,65.81
2023-04-13T00:19:50.338Z,65.81
2023-04-13T00:20:50.263Z,65.81
2023-04-13T00:21:50.248Z,65.81
2023-04-13T00:22:50.240Z,65.81
2023-04-13T00:23:50.231Z,65.81
2023-04-13T00:24:50.251Z,65.81
2023-04-13T00:25:50.217Z,65.70
2023-04-13T00:26:50.197Z,65.81
2023-04-13T00:27:50.192Z,65.81
2023-04-13T00:28:50.187Z,65.70
2023-04-13T00:29:50.181Z,65.81
2023-04-13T00:30:50.221Z,65.81
2023-04-13T00:31:50.144Z,65.81
2023-04-13T00:32:50.199Z,65.81
2023-04-13T00:33:50.126Z,65.81
2023-04-13T00:34:50.115Z,65.81
2023-04-13T00:35:50.147Z,65.70
2023-04-13T00:36:50.095Z,65.70
2023-04-13T00:37:50.081Z,65.70
2023-04-13T00:38:50.080Z,65.70
2023-04-13T00:39:50.060Z,65.70
2023-04-13T00:40:50.071Z,65.70
2023-04-13T00:41:50.039Z,65.70
2023-04-13T00:42:50.028Z,65.70
2023-04-13T00:43:50.017Z,65.70
2023-04-13T00:44:50.009Z,65.70
2023-04-13T00:45:50.118Z,65.70
2023-04-13T00:46:50.036Z,65.70
2023-04-13T00:47:50.060Z,65.70
2023-04-13T00:48:49.979Z,65.70
2023-04-13T00:49:49.975Z,65.61
2023-04-13T00:50:49.950Z,65.61
2023-04-13T00:51:49.958Z,65.61
2023-04-13T00:52:49.929Z,65.61
2023-04-13T00:53:49.934Z,65.61
2023-04-13T00:54:49.904Z,65.61
2023-04-13T00:55:49.898Z,65.61
2023-04-13T00:56:49.877Z,65.61
2023-04-13T00:57:49.922Z,65.61
2023-04-13T00:58:49.865Z,65.61
2023-04-13T00:59:49.853Z,65.61
2023-04-13T01:00:49.833Z,65.61
2023-04-13T01:01:50.006Z,65.61
2023-04-13T01:02:49.947Z,65.61
2023-04-13T01:03:49.872Z,65.61
2023-04-13T01:04:49.876Z,65.61
2023-04-13T01:05:49.806Z,65.61
2023-04-13T01:06:49.772Z,65.61
2023-04-13T01:07:49.785Z,65.70
2023-04-13T01:08:49.749Z,65.61
2023-04-13T01:09:49.742Z,65.61
2023-04-13T01:10:49.751Z,65.61
2023-04-13T01:11:49.716Z,65.61
2023-04-13T01:12:49.706Z,65.61
2023-04-13T01:13:49.693Z,65.61
2023-04-13T01:14:49.684Z,65.61
2023-04-13T01:15:49.716Z,65.61
2023-04-13T01:16:49.667Z,65.70
2023-04-13T01:17:49.676Z,65.70
2023-04-13T01:18:49.640Z,65.70
2023-04-13T01:19:49.640Z,65.70
2023-04-13T01:20:49.638Z,65.70
2023-04-13T01:21:49.609Z,65.70
2023-04-13T01:22:49.615Z,65.70
2023-04-13T01:23:49.612Z,65.70
2023-04-13T01:24:49.582Z,65.61
2023-04-13T01:25:49.606Z,65.61
2023-04-13T01:26:49.592Z,65.61
2023-04-13T01:27:49.547Z,65.61
2023-04-13T01:28:49.538Z,65.61
2023-04-13T01:29:49.529Z,65.61
2023-04-13T01:30:49.513Z,65.70
2023-04-13T01:31:49.573Z,65.61
2023-04-13T01:32:49.510Z,65.70
2023-04-13T01:33:49.491Z,65.70
2023-04-13T01:34:49.470Z,65.70
2023-04-13T01:35:49.460Z,65.70
2023-04-13T01:36:49.470Z,65.70
2023-04-13T01:37:49.436Z,65.70
2023-04-13T01:38:49.429Z,65.61
2023-04-13T01:39:49.571Z,65.70
2023-04-13T01:40:49.406Z,65.61
2023-04-13T01:41:49.482Z,65.70
2023-04-13T01:42:49.412Z,65.70
2023-04-13T01:43:49.372Z,65.61
2023-04-13T01:44:49.369Z,65.61
2023-04-13T01:45:49.350Z,65.61
2023-04-13T01:46:49.389Z,65.61
2023-04-13T01:47:49.467Z,65.61
2023-04-13T01:48:49.354Z,65.61
2023-04-13T01:49:49.306Z,65.61
2023-04-13T01:50:49.310Z,65.61
2023-04-13T01:51:49.294Z,65.61
2023-04-13T01:52:50.936Z,65.70
2023-04-13T01:53:49.264Z,65.61
2023-04-13T01:54:49.299Z,65.70
2023-04-13T01:55:49.265Z,65.70
2023-04-13T01:56:49.233Z,65.70
2023-04-13T01:57:49.219Z,65.61
2023-04-13T01:58:49.263Z,65.61
2023-04-13T01:59:49.212Z,65.61
2023-04-13T02:00:49.237Z,65.61
2023-04-13T02:01:49.281Z,65.61
2023-04-13T02:02:49.552Z,65.61
2023-04-13T02:03:49.329Z,65.61
2023-04-13T02:04:49.150Z,65.61
2023-04-13T02:05:49.172Z,65.70
2023-04-13T02:06:49.124Z,65.70
2023-04-13T02:07:49.116Z,65.61
2023-04-13T02:08:51.937Z,65.61
2023-04-13T02:09:49.092Z,65.61
2023-04-13T02:10:49.105Z,65.61
2023-04-13T02:11:49.235Z,65.61
2023-04-13T02:12:49.059Z,65.61
2023-04-13T02:13:49.049Z,65.61
2023-04-13T02:14:49.037Z,65.61
2023-04-13T02:15:49.050Z,65.61
2023-04-13T02:16:49.058Z,65.61
2023-04-13T02:17:49.036Z,65.61
2023-04-13T02:18:48.998Z,65.61
2023-04-13T02:19:48.987Z,65.61
2023-04-13T02:20:49.022Z,65.61
2023-04-13T02:21:48.974Z,65.61
2023-04-13T02:22:48.975Z,65.61
2023-04-13T02:23:48.941Z,65.61
2023-04-13T02:24:48.961Z,65.61
2023-04-13T02:25:48.923Z,65.61
2023-04-13T02:26:48.933Z,65.61
2023-04-13T02:27:48.930Z,65.61
2023-04-13T02:28:48.890Z,65.61
2023-04-13T02:29:48.909Z,65.61
2023-04-13T02:30:48.879Z,65.61
2023-04-13T02:31:48.900Z,65.61
2023-04-13T02:32:48.867Z,65.61
2023-04-13T02:33:48.848Z,65.61
2023-04-13T02:34:48.837Z,65.61
2023-04-13T02:35:48.956Z,65.61
2023-04-13T02:36:48.802Z,65.61
2023-04-13T02:37:48.818Z,65.61
2023-04-13T02:38:48.796Z,65.61
2023-04-13T02:39:48.779Z,65.61
2023-04-13T02:40:48.784Z,65.61
2023-04-13T02:41:48.746Z,65.61
2023-04-13T02:42:48.738Z,65.61
2023-04-13T02:43:48.749Z,65.61
2023-04-13T02:44:48.735Z,65.61
2023-04-13T02:45:48.720Z,65.61
2023-04-13T02:46:48.695Z,65.61
2023-04-13T02:47:48.717Z,65.61
2023-04-13T02:48:48.672Z,65.50
2023-04-13T02:49:49.468Z,65.50
2023-04-13T02:50:48.654Z,65.61
2023-04-13T02:51:48.658Z,65.61
2023-04-13T02:52:48.629Z,65.61
2023-04-13T02:53:48.617Z,65.61
2023-04-13T02:54:48.610Z,65.61
2023-04-13T02:55:48.599Z,65.61
2023-04-13T02:56:48.617Z,65.61
2023-04-13T02:57:48.577Z,65.61
2023-04-13T02:58:48.566Z,65.61
2023-04-13T02:59:48.574Z,65.50
2023-04-13T03:00:48.562Z,65.50
2023-04-13T03:01:48.649Z,65.50
2023-04-13T03:02:48.620Z,65.50
2023-04-13T03:03:48.513Z,65.61
2023-04-13T03:04:48.569Z,65.50
2023-04-13T03:05:48.493Z,65.61
2023-04-13T03:06:48.476Z,65.61
2023-04-13T03:07:48.487Z,65.61
2023-04-13T03:08:48.457Z,65.61
2023-04-13T03:09:48.450Z,65.61
2023-04-13T03:10:48.461Z,65.50
2023-04-13T03:11:48.435Z,65.50
2023-04-13T03:12:48.415Z,65.50
2023-04-13T03:13:48.409Z,65.61
2023-04-13T03:14:48.390Z,65.50
2023-04-13T03:15:48.426Z,65.50
2023-04-13T03:16:48.441Z,65.61
2023-04-13T03:17:48.436Z,65.61
2023-04-13T03:18:48.351Z,65.61
2023-04-13T03:19:48.339Z,65.61
2023-04-13T03:20:48.436Z,65.61
2023-04-13T03:21:48.321Z,65.50
2023-04-13T03:22:48.304Z,65.61
2023-04-13T03:23:48.571Z,65.50
2023-04-13T03:24:48.304Z,65.61
2023-04-13T03:25:48.277Z,65.61
2023-04-13T03:26:48.270Z,65.50
2023-04-13T03:27:48.257Z,65.61
2023-04-13T03:28:48.243Z,65.61
2023-04-13T03:29:48.330Z,65.61
2023-04-13T03:30:48.259Z,65.61
2023-04-13T03:31:48.256Z,65.61
2023-04-13T03:32:48.286Z,65.61
2023-04-13T03:33:48.203Z,65.61
2023-04-13T03:34:48.225Z,65.50
2023-04-13T03:35:48.287Z,65.50
2023-04-13T03:36:48.198Z,65.61
2023-04-13T03:37:48.148Z,65.61
2023-04-13T03:38:48.137Z,65.61
2023-04-13T03:39:48.128Z,65.61
2023-04-13T03:40:48.129Z,65.61
2023-04-13T03:41:48.140Z,65.61
2023-04-13T03:42:48.094Z,65.61
2023-04-13T03:43:48.086Z,65.61
2023-04-13T03:44:48.084Z,65.61
2023-04-13T03:45:48.063Z,65.61
2023-04-13T03:46:48.119Z,65.61
2023-04-13T03:47:48.183Z,65.61
2023-04-13T03:48:48.054Z,65.61
2023-04-13T03:49:48.031Z,65.61
2023-04-13T03:50:48.058Z,65.61
2023-04-13T03:51:48.010Z,65.61
2023-04-13T03:52:47.988Z,65.61
2023-04-13T03:53:47.976Z,65.61
2023-04-13T03:54:47.979Z,65.61
2023-04-13T03:55:47.954Z,65.61
2023-04-13T03:56:47.975Z,65.61
2023-04-13T03:57:47.932Z,65.61
2023-04-13T03:58:47.925Z,65.61
2023-04-13T03:59:48.993Z,65.61
2023-04-13T04:00:48.044Z,65.50
2023-04-13T04:01:47.969Z,65.61
2023-04-13T04:02:48.037Z,65.61
2023-04-13T04:03:48.059Z,65.50
2023-04-13T04:04:47.867Z,65.50
2023-04-13T04:05:47.874Z,65.50
2023-04-13T04:06:47.847Z,65.50
2023-04-13T04:07:47.824Z,65.50
2023-04-13T04:08:47.819Z,65.50
2023-04-13T04:09:47.802Z,65.50
2023-04-13T04:10:47.791Z,65.50
2023-04-13T04:11:47.816Z,65.50
2023-04-13T04:12:47.770Z,65.50
2023-04-13T04:13:47.758Z,65.50
2023-04-13T04:14:47.749Z,65.50
2023-04-13T04:15:47.745Z,65.50
2023-04-13T04:16:47.768Z,65.50
2023-04-13T04:17:47.732Z,65.50
2023-04-13T04:18:47.702Z,65.50
2023-04-13T04:19:47.720Z,65.50
2023-04-13T04:20:47.686Z,65.50
2023-04-13T04:21:47.710Z,65.50
2023-04-13T04:22:47.662Z,65.50
2023-04-13T04:23:47.654Z,65.50
2023-04-13T04:24:47.640Z,65.50
2023-04-13T04:25:47.634Z,65.50
2023-04-13T04:26:48.033Z,65.50
2023-04-13T04:27:47.609Z,65.40
2023-04-13T04:28:48.309Z,65.40
2023-04-13T04:29:47.588Z,65.40
2023-04-13T04:30:47.578Z,65.40
2023-04-13T04:31:47.624Z,65.40
2023-04-13T04:32:48.074Z,65.40
2023-04-13T04:33:47.556Z,65.50
2023-04-13T04:34:47.543Z,65.40
2023-04-13T04:35:47.571Z,65.40
2023-04-13T04:36:47.624Z,65.40
2023-04-13T04:37:47.500Z,65.50
2023-04-13T04:38:47.498Z,65.50
2023-04-13T04:39:47.484Z,65.50
2023-04-13T04:40:47.522Z,65.50
2023-04-13T04:41:47.459Z,65.50
2023-04-13T04:42:47.458Z,65.50
2023-04-13T04:43:47.438Z,65.50
2023-04-13T04:44:47.429Z,65.50
2023-04-13T04:45:47.442Z,65.50
2023-04-13T04:46:47.548Z,65.50
2023-04-13T04:47:47.437Z,65.50
2023-04-13T04:48:47.384Z,65.50
2023-04-13T04:49:47.387Z,65.50
2023-04-13T04:50:47.363Z,65.50
2023-04-13T04:51:48.159Z,65.50
2023-04-13T04:52:47.774Z,65.50
2023-04-13T04:53:47.331Z,65.50
2023-04-13T04:54:47.317Z,65.40
2023-04-13T04:55:47.349Z,65.50
2023-04-13T04:56:47.301Z,65.40
2023-04-13T04:57:47.294Z,65.40
2023-04-13T04:58:47.275Z,65.40
2023-04-13T04:59:47.269Z,65.40
2023-04-13T05:00:47.345Z,65.50
2023-04-13T05:01:47.456Z,65.50
2023-04-13T05:02:47.380Z,65.50
2023-04-13T05:03:47.225Z,65.50
2023-04-13T05:04:47.213Z,65.50
2023-04-13T05:05:47.241Z,65.40
2023-04-13T05:06:47.216Z,65.40
2023-04-13T05:07:47.234Z,65.40
2023-04-13T05:08:47.172Z,65.50
2023-04-13T05:09:47.175Z,65.40
2023-04-13T05:10:47.155Z,65.40
2023-04-13T05:11:47.145Z,65.40
2023-04-13T05:12:47.128Z,65.40
2023-04-13T05:13:47.152Z,65.40
2023-04-13T05:14:47.108Z,65.40
2023-04-13T05:15:47.138Z,65.40
2023-04-13T05:16:47.091Z,65.40
2023-04-13T05:17:47.096Z,65.40
2023-04-13T05:18:47.115Z,65.40
2023-04-13T05:19:47.054Z,65.40
2023-04-13T05:20:47.049Z,65.40
2023-04-13T05:21:47.039Z,65.40
2023-04-13T05:22:48.228Z,65.40
2023-04-13T05:23:49.442Z,65.40
2023-04-13T05:24:47.003Z,65.40
2023-04-13T05:25:46.988Z,65.40
2023-04-13T05:26:46.991Z,65.40
2023-04-13T05:27:49.075Z,65.40
2023-04-13T05:28:46.959Z,65.40
2023-04-13T05:29:47.827Z,65.40
2023-04-13T05:30:47.341Z,65.40
2023-04-13T05:31:46.986Z,65.40
2023-04-13T05:32:47.906Z,65.40
2023-04-13T05:33:47.395Z,65.40
2023-04-13T05:34:46.900Z,65.40
2023-04-13T05:35:46.884Z,65.40
2023-04-13T05:36:46.871Z,65.40
2023-04-13T05:37:46.858Z,65.40
2023-04-13T05:38:46.979Z,65.40
2023-04-13T05:39:46.870Z,65.40
2023-04-13T05:40:46.829Z,65.40
2023-04-13T05:41:46.818Z,65.40
2023-04-13T05:42:46.809Z,65.40
2023-04-13T05:43:46.799Z,65.40
2023-04-13T05:44:46.937Z,65.40
2023-04-13T05:45:46.790Z,65.40
2023-04-13T05:46:46.763Z,65.40
2023-04-13T05:47:46.797Z,65.40
2023-04-13T05:48:46.756Z,65.40
2023-04-13T05:49:46.802Z,65.40
2023-04-13T05:50:46.721Z,65.40
2023-04-13T05:51:47.505Z,65.40
2023-04-13T05:52:46.699Z,65.40
2023-04-13T05:53:46.699Z,65.40
2023-04-13T05:54:47.319Z,65.40
2023-04-13T05:55:48.554Z,65.40
2023-04-13T05:56:46.654Z,65.40
2023-04-13T05:57:46.648Z,65.40
2023-04-13T05:58:46.649Z,65.40
2023-04-13T05:59:46.622Z,65.40
2023-04-13T06:00:46.614Z,65.40
2023-04-13T06:01:50.862Z,65.40
2023-04-13T06:02:49.080Z,65.40
2023-04-13T06:03:46.824Z,65.40
2023-04-13T06:04:48.897Z,65.40
2023-04-13T06:05:46.558Z,65.40
2023-04-13T06:06:46.546Z,65.40
2023-04-13T06:07:48.608Z,65.40
2023-04-13T06:08:46.526Z,65.40
2023-04-13T06:09:46.521Z,65.40
2023-04-13T06:10:46.505Z,65.40
2023-04-13T06:11:46.514Z,65.40
2023-04-13T06:12:46.485Z,65.40
2023-04-13T06:13:48.550Z,65.40
2023-04-13T06:14:47.354Z,65.40
2023-04-13T06:15:46.453Z,65.40
2023-04-13T06:16:46.574Z,65.40
2023-04-13T06:17:46.478Z,65.50
2023-04-13T06:18:46.437Z,65.50
2023-04-13T06:19:48.574Z,65.50
2023-04-13T06:20:46.434Z,65.50
2023-04-13T06:21:46.415Z,65.50
2023-04-13T06:22:46.395Z,65.50
2023-04-13T06:23:48.477Z,65.50
2023-04-13T06:24:46.359Z,65.50
2023-04-13T06:25:46.340Z,65.50
2023-04-13T06:26:46.331Z,65.40
2023-04-13T06:27:47.416Z,65.40
2023-04-13T06:28:46.317Z,65.40
2023-04-13T06:29:46.308Z,65.40
2023-04-13T06:30:46.337Z,65.40
2023-04-13T06:31:46.287Z,65.40
2023-04-13T06:32:47.532Z,65.40
2023-04-13T06:33:46.260Z,65.40
2023-04-13T06:34:46.251Z,65.40
2023-04-13T06:35:46.236Z,65.50
2023-04-13T06:36:46.224Z,65.50
2023-04-13T06:37:46.226Z,65.50
2023-04-13T06:38:48.134Z,65.40
2023-04-13T06:39:46.196Z,65.50
2023-04-13T06:40:46.182Z,65.50
2023-04-13T06:41:46.171Z,65.40
2023-04-13T06:42:48.202Z,65.40
2023-04-13T06:43:46.182Z,65.50
2023-04-13T06:44:46.142Z,65.40
2023-04-13T06:45:46.127Z,65.40
2023-04-13T06:46:46.187Z,65.40
2023-04-13T06:47:48.406Z,65.40
2023-04-13T06:48:48.247Z,65.40
2023-04-13T06:49:46.091Z,65.40
2023-04-13T06:50:47.938Z,65.40
2023-04-13T06:51:46.064Z,65.40
2023-04-13T06:52:47.801Z,65.40
2023-04-13T06:53:46.048Z,65.40
2023-04-13T06:54:46.029Z,65.40
2023-04-13T06:55:46.026Z,65.40
2023-04-13T06:56:46.017Z,65.40
2023-04-13T06:57:46.004Z,65.40
2023-04-13T06:58:47.914Z,65.40
2023-04-13T06:59:47.835Z,65.40
2023-04-13T07:00:46.015Z,65.40
2023-04-13T07:01:46.038Z,65.40
2023-04-13T07:02:46.084Z,65.40
2023-04-13T07:03:46.067Z,65.40
2023-04-13T07:04:48.023Z,65.40
2023-04-13T07:05:45.913Z,65.40
2023-04-13T07:06:45.904Z,65.40
2023-04-13T07:07:45.898Z,65.40
2023-04-13T07:08:47.554Z,65.40
2023-04-13T07:09:47.743Z,65.40
2023-04-13T07:10:45.861Z,65.40
2023-04-13T07:11:45.851Z,65.40
2023-04-13T07:12:45.855Z,65.40
2023-04-13T07:13:47.514Z,65.40
2023-04-13T07:14:45.854Z,65.40
2023-04-13T07:15:45.825Z,65.40
2023-04-13T07:16:45.831Z,65.40
2023-04-13T07:17:45.854Z,65.50
2023-04-13T07:18:45.792Z,65.40
2023-04-13T07:19:47.751Z,65.30
2023-04-13T07:20:45.754Z,65.30
2023-04-13T07:21:45.743Z,65.30
2023-04-13T07:22:45.739Z,65.30
2023-04-13T07:23:45.729Z,65.30
2023-04-13T07:24:47.388Z,65.40
2023-04-13T07:25:45.710Z,65.40
2023-04-13T07:26:45.690Z,65.40
2023-04-13T07:27:45.680Z,65.40
2023-04-13T07:28:45.683Z,65.40
2023-04-13T07:29:47.437Z,65.40
2023-04-13T07:30:45.678Z,65.40
2023-04-13T07:31:45.685Z,65.40
2023-04-13T07:32:45.646Z,65.40
2023-04-13T07:33:47.215Z,65.40
2023-04-13T07:34:45.607Z,65.40
2023-04-13T07:35:46.047Z,65.40
2023-04-13T07:36:45.584Z,65.40
2023-04-13T07:37:45.587Z,65.40
2023-04-13T07:38:45.573Z,65.40
2023-04-13T07:39:45.551Z,65.40
2023-04-13T07:40:45.717Z,65.40
2023-04-13T07:41:45.537Z,65.40
2023-04-13T07:42:45.530Z,65.40
2023-04-13T07:43:45.512Z,65.50
2023-04-13T07:44:45.499Z,65.50
2023-04-13T07:45:45.647Z,65.50
2023-04-13T07:46:45.574Z,65.61
2023-04-13T07:47:45.490Z,65.61
2023-04-13T07:48:45.451Z,65.50
2023-04-13T07:49:45.441Z,65.50
2023-04-13T07:50:45.432Z,65.50
2023-04-13T07:51:45.598Z,65.50
2023-04-13T07:52:45.431Z,65.50
2023-04-13T07:53:45.403Z,65.50
2023-04-13T07:54:45.385Z,65.50
2023-04-13T07:55:45.380Z,65.40
2023-04-13T07:56:45.431Z,65.40
2023-04-13T07:57:45.358Z,65.30
2023-04-13T07:58:45.450Z,65.27
2023-04-13T07:59:45.358Z,65.30
2023-04-13T08:00:45.332Z,65.37
2023-04-13T08:01:45.344Z,65.57
2023-04-13T08:02:45.484Z,65.67
2023-04-13T08:03:45.771Z,65.78
2023-04-13T08:04:45.415Z,65.88
2023-04-13T08:05:47.249Z,66.08
2023-04-13T08:06:45.257Z,66.28
2023-04-13T08:07:45.287Z,66.38
2023-04-13T08:08:45.241Z,66.38
2023-04-13T08:09:45.227Z,66.48
2023-04-13T08:10:45.218Z,66.69
2023-04-13T08:11:46.576Z,66.69
2023-04-13T08:12:45.201Z,66.78
2023-04-13T08:13:45.182Z,66.69
2023-04-13T08:14:45.201Z,66.78
2023-04-13T08:15:45.164Z,66.89
2023-04-13T08:16:45.168Z,66.99
2023-04-13T08:17:45.229Z,67.09
2023-04-13T08:18:45.160Z,67.29
2023-04-13T08:19:45.266Z,67.39
2023-04-13T08:20:45.405Z,67.39
2023-04-13T08:21:45.222Z,67.39
2023-04-13T08:22:45.094Z,67.39
2023-04-13T08:23:45.080Z,67.49
2023-04-13T08:24:45.070Z,67.49
2023-04-13T08:25:46.101Z,67.69
2023-04-13T08:26:45.046Z,67.69
2023-04-13T08:27:45.039Z,67.60
2023-04-13T08:28:45.038Z,67.60
2023-04-13T08:29:45.012Z,67.60
2023-04-13T08:30:45.001Z,67.60
2023-04-13T08:31:45.506Z,67.49
2023-04-13T08:32:45.628Z,67.39
2023-04-13T08:33:44.977Z,67.29
2023-04-13T08:34:44.984Z,67.29
2023-04-13T08:35:44.950Z,67.29
2023-04-13T08:36:44.938Z,67.29
2023-04-13T08:37:44.967Z,67.39
2023-04-13T08:38:44.915Z,67.39
2023-04-13T08:39:44.910Z,67.39
2023-04-13T08:40:44.918Z,67.39
2023-04-13T08:41:44.886Z,67.39
2023-04-13T08:42:44.878Z,67.29
2023-04-13T08:43:44.864Z,67.39
2023-04-13T08:44:44.882Z,67.39
2023-04-13T08:45:44.857Z,67.39
2023-04-13T08:46:44.852Z,67.39
2023-04-13T08:47:45.996Z,67.29
2023-04-13T08:48:53.359Z,67.29
2023-04-13T08:49:45.806Z,67.19
2023-04-13T08:50:44.862Z,67.19
2023-04-13T08:51:44.786Z,67.19
2023-04-13T08:52:44.770Z,67.19
2023-04-13T08:53:44.948Z,67.19
2023-04-13T08:54:44.742Z,67.19
2023-04-13T08:55:44.734Z,67.19
2023-04-13T08:56:46.745Z,67.19
2023-04-13T08:57:45.225Z,67.19
2023-04-13T08:58:44.698Z,67.19
2023-04-13T08:59:44.710Z,67.19
2023-04-13T09:00:44.681Z,67.19
2023-04-13T09:01:44.890Z,67.19
2023-04-13T09:03:02.536Z,67.09
2023-04-13T09:03:45.798Z,67.09
2023-04-13T09:04:47.778Z,67.09
2023-04-13T09:05:46.562Z,67.09
2023-04-13T09:06:44.645Z,67.09
2023-04-13T09:07:44.603Z,67.09
2023-04-13T09:08:46.297Z,67.09
2023-04-13T09:09:44.581Z,67.09
2023-04-13T09:10:44.568Z,67.09
2023-04-13T09:11:44.609Z,67.09
2023-04-13T09:12:44.554Z,66.99
2023-04-13T09:13:44.538Z,66.28
2023-04-13T09:14:45.595Z,66.28
2023-04-13T09:15:44.516Z,66.28
2023-04-13T09:16:44.544Z,66.28
2023-04-13T09:17:44.581Z,66.28
2023-04-13T09:18:44.482Z,66.08
2023-04-13T09:19:44.478Z,66.08
2023-04-13T09:20:44.463Z,66.08
2023-04-13T09:21:44.636Z,66.08
2023-04-13T09:22:44.537Z,66.08
2023-04-13T09:23:44.438Z,66.08
2023-04-13T09:24:46.055Z,65.98
2023-04-13T09:25:44.412Z,65.98
2023-04-13T09:26:44.440Z,65.98
2023-04-13T09:27:44.394Z,65.98
2023-04-13T09:28:44.484Z,66.28
2023-04-13T09:29:45.208Z,66.38
2023-04-13T09:30:44.409Z,66.48
2023-04-13T09:31:45.717Z,66.48
2023-04-13T09:32:44.375Z,66.58
2023-04-13T09:33:44.340Z,66.69
2023-04-13T09:34:44.318Z,66.78
2023-04-13T09:35:45.451Z,66.08
2023-04-13T09:36:54.100Z,66.18
2023-04-13T09:37:45.281Z,66.18
2023-04-13T09:38:45.640Z,65.98
2023-04-13T09:39:44.262Z,65.88
2023-04-13T09:40:44.284Z,65.88
2023-04-13T09:41:44.239Z,65.88
2023-04-13T09:42:44.230Z,65.88
2023-04-13T09:43:44.225Z,65.88
2023-04-13T09:44:45.864Z,65.88
2023-04-13T09:45:44.206Z,65.88
2023-04-13T09:46:46.730Z,65.88
2023-04-13T09:47:44.230Z,65.98
2023-04-13T09:48:44.179Z,65.98
2023-04-13T09:49:44.152Z,65.98
2023-04-13T09:50:44.156Z,65.98
2023-04-13T09:51:44.214Z,66.08
2023-04-13T09:52:44.187Z,66.08
2023-04-13T09:53:44.115Z,66.08
2023-04-13T09:54:44.132Z,65.98
2023-04-13T09:55:44.088Z,66.08
2023-04-13T09:56:44.079Z,66.18
2023-04-13T09:57:44.199Z,66.28
2023-04-13T09:58:44.817Z,66.38
2023-04-13T09:59:44.050Z,66.48
2023-04-13T10:00:44.035Z,66.58
2023-04-13T10:01:44.194Z,66.58
2023-04-13T10:02:44.169Z,66.69
2023-04-13T10:03:44.112Z,66.69
2023-04-13T10:04:44.083Z,66.69
2023-04-13T10:05:58.656Z,66.69
2023-04-13T10:06:44.996Z,66.75
2023-04-13T10:07:43.961Z,66.78
2023-04-13T10:08:43.974Z,66.65
2023-04-13T10:09:43.936Z,66.58
2023-04-13T10:10:43.953Z,66.55
2023-04-13T10:11:43.966Z,66.28
2023-04-13T10:12:43.902Z,66.18
2023-04-13T10:13:43.923Z,65.98
2023-04-13T10:14:43.882Z,65.98
2023-04-13T10:15:43.938Z,65.88
2023-04-13T10:16:43.973Z,65.88
2023-04-13T10:17:43.963Z,65.88
2023-04-13T10:18:44.234Z,65.88
2023-04-13T10:19:43.827Z,65.88
2023-04-13T10:20:43.838Z,65.88
2023-04-13T10:21:43.842Z,65.88
2023-04-13T10:22:43.840Z,65.88
2023-04-13T10:23:43.783Z,65.88
2023-04-13T10:24:43.771Z,65.98
2023-04-13T10:25:43.836Z,66.18
2023-04-13T10:26:43.776Z,66.18
2023-04-13T10:27:43.751Z,66.08
2023-04-13T10:28:43.863Z,66.18
2023-04-13T10:29:43.719Z,66.18
2023-04-13T10:30:43.735Z,66.18
2023-04-13T10:31:43.747Z,66.08
2023-04-13T10:32:43.712Z,65.98
2023-04-13T10:33:44.062Z,65.98
2023-04-13T10:34:43.890Z,65.98
2023-04-13T10:35:43.786Z,65.98
2023-04-13T10:36:43.642Z,65.98
2023-04-13T10:37:43.634Z,65.98
2023-04-13T10:38:43.621Z,66.08
2023-04-13T10:39:43.614Z,66.08
2023-04-13T10:40:43.659Z,66.08
2023-04-13T10:41:43.587Z,66.18
2023-04-13T10:43:44.050Z,66.18
2023-04-13T10:44:43.560Z,66.18
2023-04-13T10:45:43.539Z,66.28
2023-04-13T10:46:43.579Z,66.28
2023-04-13T10:47:43.518Z,66.28
2023-04-13T10:48:43.656Z,66.28
2023-04-13T10:49:43.503Z,66.18
2023-04-13T10:50:43.491Z,66.18
2023-04-13T10:51:43.507Z,66.18
2023-04-13T10:52:43.464Z,66.18
2023-04-13T10:53:43.823Z,66.18
2023-04-13T10:54:43.451Z,66.18
2023-04-13T10:55:43.438Z,66.08
2023-04-13T10:56:43.425Z,66.18
2023-04-13T10:57:43.416Z,66.38
2023-04-13T10:58:43.425Z,66.28
2023-04-13T10:59:56.022Z,66.28
2023-04-13T11:00:46.649Z,66.28
2023-04-13T11:01:43.392Z,66.08
2023-04-13T11:02:43.466Z,66.08
2023-04-13T11:03:50.203Z,66.08
2023-04-13T11:04:44.559Z,66.08
2023-04-13T11:05:45.369Z,66.08
2023-04-13T11:06:43.313Z,66.18
2023-04-13T11:07:43.315Z,66.08
2023-04-13T11:08:48.511Z,66.08
2023-04-13T11:09:44.283Z,65.98
2023-04-13T11:10:43.331Z,65.98
2023-04-13T11:11:43.291Z,65.98
2023-04-13T11:12:43.255Z,65.98
2023-04-13T11:13:43.243Z,65.98
2023-04-13T11:14:43.258Z,66.28
2023-04-13T11:15:43.574Z,66.38
2023-04-13T11:16:43.259Z,66.48
2023-04-13T11:17:43.680Z,66.58
2023-04-13T11:18:43.187Z,66.65
2023-04-13T11:19:43.211Z,66.65
2023-04-13T11:20:43.165Z,66.65
2023-04-13T11:21:43.156Z,66.65
2023-04-13T11:22:47.474Z,66.35
2023-04-13T11:23:43.134Z,66.15
2023-04-13T11:24:43.144Z,66.15
2023-04-13T11:25:43.123Z,66.15
2023-04-13T11:26:43.524Z,66.15
2023-04-13T11:27:43.140Z,66.15
2023-04-13T11:28:43.081Z,66.18
2023-04-13T11:29:43.068Z,66.18
2023-04-13T11:30:43.083Z,66.18
2023-04-13T11:31:43.655Z,66.08
2023-04-13T11:32:43.392Z,65.98
2023-04-13T11:33:43.023Z,66.08
2023-04-13T11:34:43.035Z,66.08
2023-04-13T11:36:44.242Z,65.98
2023-04-13T11:37:42.984Z,65.98
2023-04-13T11:38:42.972Z,65.98
2023-04-13T11:39:42.959Z,65.98
2023-04-13T11:40:42.949Z,65.98
2023-04-13T11:41:42.946Z,65.98
2023-04-13T11:42:43.001Z,65.98
2023-04-13T11:43:42.911Z,65.88
2023-04-13T11:44:42.921Z,65.88
2023-04-13T11:45:43.004Z,65.88
2023-04-13T11:46:43.117Z,65.88
2023-04-13T11:47:42.928Z,65.88
2023-04-13T11:48:42.868Z,65.88
2023-04-13T11:49:42.850Z,65.88
2023-04-13T11:50:42.837Z,65.88
2023-04-13T11:51:42.853Z,65.88
2023-04-13T11:52:42.816Z,65.88
2023-04-13T11:53:42.819Z,65.78
2023-04-13T11:54:42.817Z,65.78
2023-04-13T11:55:52.912Z,65.78
2023-04-13T11:56:43.780Z,65.88
2023-04-13T11:57:42.823Z,65.98
2023-04-13T11:58:42.771Z,65.98
2023-04-13T11:59:42.742Z,65.98
2023-04-13T12:00:42.785Z,65.98
2023-04-13T12:01:49.504Z,65.88
2023-04-13T12:03:00.526Z,65.98
2023-04-13T12:04:42.839Z,65.98
2023-04-13T12:05:43.278Z,65.98
2023-04-13T12:06:43.243Z,65.98
2023-04-13T12:07:43.027Z,65.98
2023-04-13T12:08:42.830Z,65.98
2023-04-13T12:09:55.574Z,66.08
2023-04-13T12:10:58.444Z,65.98
2023-04-13T12:11:46.642Z,65.98
2023-04-13T12:12:51.300Z,65.98
2023-04-13T12:15:49.599Z,65.98
2023-04-13T12:17:49.665Z,65.98
2023-04-13T12:18:44.154Z,65.98
2023-04-13T12:19:43.619Z,65.98
2023-04-13T12:20:42.579Z,65.98
2023-04-13T12:21:42.679Z,65.98
2023-04-13T12:22:52.433Z,65.88
2023-04-13T12:23:43.553Z,65.88
2023-04-13T12:24:42.873Z,65.88
2023-04-13T12:25:42.517Z,65.78
2023-04-13T12:27:17.169Z,65.78
2023-04-13T12:27:43.448Z,65.78
2023-04-13T12:28:42.435Z,65.67
2023-04-13T12:29:43.427Z,65.67
2023-04-13T12:30:42.416Z,65.78
2023-04-13T12:31:42.425Z,65.78
2023-04-13T12:32:42.422Z,65.67
2023-04-13T12:33:42.381Z,65.67
2023-04-13T12:34:43.525Z,65.67
2023-04-13T12:35:42.355Z,65.67
2023-04-13T12:36:42.352Z,65.64
2023-04-13T12:37:42.335Z,65.54
2023-04-13T12:38:42.323Z,65.54
2023-04-13T12:39:42.318Z,65.64
2023-04-13T12:40:42.486Z,65.54
2023-04-13T12:41:42.305Z,65.54
2023-04-13T12:42:42.283Z,65.64
2023-04-13T12:43:42.279Z,65.75
2023-04-13T12:44:42.262Z,65.75
2023-04-13T12:45:42.251Z,65.75
2023-04-13T12:46:42.388Z,65.84
2023-04-13T12:47:42.254Z,65.95
2023-04-13T12:48:42.217Z,66.05
2023-04-13T12:49:42.218Z,66.15
2023-04-13T12:50:42.236Z,65.95
2023-04-13T12:51:42.266Z,66.05
2023-04-13T12:52:42.186Z,66.15
2023-04-13T12:53:42.172Z,66.15
2023-04-13T12:54:42.178Z,66.35
2023-04-13T12:55:42.155Z,66.55
2023-04-13T12:56:42.187Z,66.65
2023-04-13T12:57:42.122Z,66.65
2023-04-13T12:58:42.116Z,66.65